createdAt,value
2023-05-21T00:01:20.126Z,52.75
2023-05-21T00:03:47.677Z,53.08
2023-05-21T00:06:15.680Z,50.63
2023-05-21T00:08:43.465Z,56.30
2023-05-21T00:11:11.181Z,55.10
2023-05-21T00:13:38.791Z,53.80
2023-05-21T00:16:06.453Z,57.70
2023-05-21T00:18:34.475Z,55.50
2023-05-21T00:21:02.341Z,57.38
2023-05-21T00:23:32.726Z,57.00
2023-05-21T00:26:00.481Z,69.57
2023-05-21T00:28:28.252Z,60.83
2023-05-21T00:30:55.811Z,63.78
2023-05-21T00:33:26.545Z,58.00
2023-05-21T00:35:54.389Z,64.40
2023-05-21T00:38:22.267Z,58.03
2023-05-21T00:40:50.044Z,65.32
2023-05-21T00:43:17.608Z,63.05
2023-05-21T00:45:46.813Z,60.60
2023-05-21T00:48:15.129Z,63.17
2023-05-21T00:50:43.370Z,69.05
2023-05-21T00:53:11.909Z,62.40
2023-05-21T00:55:39.755Z,68.80
2023-05-21T00:58:07.621Z,70.28
2023-05-21T01:00:35.995Z,75.20
2023-05-21T01:03:04.194Z,75.25
2023-05-21T01:05:32.589Z,73.50
2023-05-21T01:08:00.299Z,67.20
2023-05-21T01:10:28.265Z,64.82
2023-05-21T01:12:57.609Z,70.50
2023-05-21T01:15:25.457Z,68.93
2023-05-21T01:17:53.298Z,70.13
2023-05-21T01:20:21.277Z,71.50
2023-05-21T01:22:58.452Z,75.60
2023-05-21T01:25:26.112Z,75.75
2023-05-21T01:27:53.637Z,73.82
2023-05-21T01:30:22.323Z,75.90
2023-05-21T01:32:53.319Z,83.35
2023-05-21T01:35:27.192Z,84.20
2023-05-21T01:38:15.126Z,88.40
2023-05-21T01:40:46.654Z,82.50
2023-05-21T01:43:15.098Z,77.75
2023-05-21T01:45:43.720Z,75.88
2023-05-21T01:48:11.750Z,73.13
2023-05-21T01:50:40.214Z,73.43
2023-05-21T01:53:08.115Z,64.75
2023-05-21T01:55:36.188Z,60.92
2023-05-21T01:58:04.251Z,61.67
2023-05-21T02:00:32.766Z,58.55
2023-05-21T02:03:00.297Z,58.28
2023-05-21T02:05:27.957Z,58.92
2023-05-21T02:07:57.177Z,54.90
2023-05-21T02:10:24.767Z,56.35
2023-05-21T02:12:52.311Z,56.95
2023-05-21T02:15:20.086Z,57.47
2023-05-21T02:17:47.719Z,54.70
2023-05-21T02:20:15.711Z,56.72
2023-05-21T02:22:44.542Z,55.72
2023-05-21T02:25:12.823Z,56.60
2023-05-21T02:27:40.937Z,53.58
2023-05-21T02:30:09.189Z,54.40
2023-05-21T02:32:37.008Z,55.85
2023-05-21T02:35:05.194Z,61.42
2023-05-21T02:37:35.973Z,60.78
2023-05-21T02:40:05.943Z,59.75
2023-05-21T02:42:34.227Z,61.45
2023-05-21T02:45:01.790Z,57.70
2023-05-21T02:47:30.222Z,57.47
2023-05-21T02:49:59.463Z,62.28
2023-05-21T02:52:27.173Z,66.30
2023-05-21T02:54:54.883Z,62.10
2023-05-21T02:57:22.373Z,61.92
2023-05-21T02:59:50.040Z,67.57
2023-05-21T03:02:17.912Z,59.28
2023-05-21T03:04:49.015Z,63.28
2023-05-21T03:07:19.338Z,61.65
2023-05-21T03:09:47.302Z,63.25
2023-05-21T03:12:14.982Z,63.50
2023-05-21T03:14:44.180Z,60.75
2023-05-21T03:17:14.145Z,63.35
2023-05-21T03:19:42.547Z,62.55
2023-05-21T03:22:11.421Z,63.40
2023-05-21T03:24:39.554Z,58.53
2023-05-21T03:27:07.553Z,61.33
2023-05-21T03:29:36.223Z,62.90
2023-05-21T03:32:04.646Z,65.13
2023-05-21T03:34:34.660Z,57.40
2023-05-21T03:37:03.629Z,56.60
2023-05-21T03:39:32.470Z,57.15
2023-05-21T03:42:00.647Z,62.75
2023-05-21T03:44:41.002Z,56.53
2023-05-21T03:47:41.936Z,51.30
2023-05-21T03:50:11.173Z,54.05
2023-05-21T03:52:39.381Z,48.78
2023-05-21T03:55:07.070Z,53.70
2023-05-21T03:57:34.758Z,52.55
2023-05-21T04:00:02.768Z,51.25
2023-05-21T04:02:32.973Z,53.85
2023-05-21T04:05:00.525Z,49.58
2023-05-21T04:07:30.228Z,47.53
2023-05-21T04:09:57.829Z,45.78
2023-05-21T04:12:25.377Z,46.60
2023-05-21T04:14:52.942Z,47.53
2023-05-21T04:17:21.223Z,43.38
2023-05-21T04:19:48.886Z,42.17
2023-05-21T04:22:16.636Z,38.38
2023-05-21T04:24:46.661Z,36.92
2023-05-21T04:27:18.217Z,35.00
2023-05-21T04:29:46.190Z,31.25
2023-05-21T04:32:15.333Z,30.92
2023-05-21T04:34:45.485Z,28.58
2023-05-21T04:37:13.038Z,34.42
2023-05-21T04:39:41.284Z,29.95
2023-05-21T04:42:11.294Z,30.42
2023-05-21T04:44:40.492Z,28.00
2023-05-21T04:47:08.364Z,26.38
2023-05-21T04:49:37.223Z,23.30
2023-05-21T04:52:04.729Z,25.10
2023-05-21T04:54:32.423Z,22.95
2023-05-21T04:57:00.195Z,24.80
2023-05-21T04:59:27.662Z,22.45
2023-05-21T05:01:55.591Z,20.55
2023-05-21T05:04:24.011Z,24.77
2023-05-21T05:06:52.425Z,19.73
2023-05-21T05:09:21.765Z,22.13
2023-05-21T05:11:49.224Z,20.00
2023-05-21T05:14:16.670Z,19.98
2023-05-21T05:16:48.254Z,18.10
2023-05-21T05:19:16.884Z,21.45
2023-05-21T05:21:45.061Z,19.08
2023-05-21T05:24:12.843Z,19.95
2023-05-21T05:26:40.411Z,21.10
2023-05-21T05:29:07.916Z,19.45
2023-05-21T05:31:35.508Z,17.65
2023-05-21T05:34:03.127Z,16.15
2023-05-21T05:36:31.611Z,19.05
2023-05-21T05:38:59.222Z,17.02
2023-05-21T05:41:27.297Z,16.85
2023-05-21T05:43:56.487Z,18.17
2023-05-21T05:46:27.119Z,16.52
2023-05-21T05:48:54.686Z,15.32
2023-05-21T05:51:22.384Z,16.38
2023-05-21T05:53:49.855Z,14.52
2023-05-21T05:56:17.407Z,17.10
2023-05-21T05:58:45.667Z,16.15
2023-05-21T06:01:15.232Z,16.85
2023-05-21T06:03:43.262Z,16.80
2023-05-21T06:06:14.887Z,16.30
2023-05-21T06:08:42.781Z,15.60
2023-05-21T06:11:11.114Z,16.20
2023-05-21T06:13:38.618Z,15.82
2023-05-21T06:16:07.784Z,14.27
2023-05-21T06:18:35.380Z,13.07
2023-05-21T06:21:02.967Z,13.75
2023-05-21T06:23:32.747Z,14.63
2023-05-21T06:26:00.853Z,21.63
2023-05-21T06:28:28.598Z,15.55
2023-05-21T06:30:56.558Z,19.20
2023-05-21T06:33:25.212Z,14.95
2023-05-21T06:35:53.279Z,17.83
2023-05-21T06:38:20.862Z,14.32
2023-05-21T06:40:48.364Z,14.23
2023-05-21T06:43:26.389Z,13.82
2023-05-21T06:46:14.201Z,15.43
2023-05-21T06:48:41.885Z,18.48
2023-05-21T06:51:09.519Z,15.40
2023-05-21T06:53:37.151Z,17.40
2023-05-21T06:56:05.078Z,12.60
2023-05-21T06:58:37.593Z,15.52
2023-05-21T07:01:06.047Z,16.60
2023-05-21T07:03:33.722Z,14.20
2023-05-21T07:06:01.229Z,12.50
2023-05-21T07:08:29.341Z,14.48
2023-05-21T07:10:57.477Z,17.85
2023-05-21T07:13:25.799Z,18.05
2023-05-21T07:15:54.009Z,14.32
2023-05-21T07:18:21.751Z,16.45
2023-05-21T07:20:49.201Z,17.20
2023-05-21T07:23:17.076Z,16.50
2023-05-21T07:25:46.577Z,14.60
2023-05-21T07:28:14.988Z,16.45
2023-05-21T07:30:42.695Z,17.52
2023-05-21T07:33:14.838Z,16.75
2023-05-21T07:35:42.801Z,17.50
2023-05-21T07:38:10.422Z,20.92
2023-05-21T07:40:38.154Z,14.80
2023-05-21T07:43:05.773Z,15.07
2023-05-21T07:45:35.005Z,20.02
2023-05-21T07:48:03.247Z,16.75
2023-05-21T07:50:33.144Z,13.65
2023-05-21T07:53:00.828Z,17.52
2023-05-21T07:55:28.474Z,14.15
2023-05-21T07:57:56.425Z,13.43
2023-05-21T08:00:28.763Z,14.23
2023-05-21T08:02:58.264Z,16.63
2023-05-21T08:05:26.797Z,20.67
2023-05-21T08:07:54.228Z,13.13
2023-05-21T08:10:22.658Z,17.23
2023-05-21T08:12:52.348Z,13.25
2023-05-21T08:15:21.260Z,16.05
2023-05-21T08:17:48.933Z,12.10
2023-05-21T08:20:16.633Z,14.20
2023-05-21T08:22:46.145Z,11.50
2023-05-21T08:25:13.847Z,13.25
2023-05-21T08:27:42.839Z,13.93
2023-05-21T08:30:13.630Z,13.98
2023-05-21T08:32:41.702Z,12.60
2023-05-21T08:35:09.469Z,14.27
2023-05-21T08:37:54.722Z,14.77
2023-05-21T08:40:42.427Z,13.05
2023-05-21T08:43:13.959Z,11.75
2023-05-21T08:45:46.312Z,13.35
2023-05-21T08:48:17.114Z,11.75
2023-05-21T08:50:46.259Z,13.73
2023-05-21T08:53:28.649Z,14.80
2023-05-21T08:55:57.756Z,11.55
2023-05-21T08:58:36.158Z,12.88
2023-05-21T09:01:05.677Z,12.30
2023-05-21T09:03:34.864Z,12.85
2023-05-21T09:06:03.100Z,11.30
2023-05-21T09:08:32.947Z,11.10
2023-05-21T09:11:25.480Z,11.35
2023-05-21T09:13:57.220Z,13.23
2023-05-21T09:16:31.870Z,11.27
2023-05-21T09:19:01.077Z,14.15
2023-05-21T09:21:33.929Z,12.40
2023-05-21T09:24:07.426Z,10.40
2023-05-21T09:26:34.931Z,8.50
2023-05-21T09:29:06.029Z,10.25
2023-05-21T09:31:33.590Z,16.95
2023-05-21T09:34:01.903Z,9.10
2023-05-21T09:36:32.339Z,11.00
2023-05-21T09:39:00.656Z,12.57
2023-05-21T09:41:38.394Z,11.68
2023-05-21T09:44:07.112Z,11.20
2023-05-21T09:46:41.227Z,10.05
2023-05-21T09:49:30.700Z,11.57
2023-05-21T09:52:02.242Z,14.20
2023-05-21T09:54:33.995Z,11.23
2023-05-21T09:57:05.149Z,10.23
2023-05-21T09:59:41.835Z,10.90
2023-05-21T10:02:22.298Z,13.05
2023-05-21T10:04:51.876Z,9.90
2023-05-21T10:07:27.403Z,13.68
2023-05-21T10:09:58.741Z,11.52
2023-05-21T10:12:26.612Z,8.40
2023-05-21T10:15:08.990Z,11.90
2023-05-21T10:17:37.104Z,10.10
2023-05-21T10:20:06.606Z,11.88
2023-05-21T10:22:35.054Z,12.13
2023-05-21T10:25:04.038Z,13.73
2023-05-21T10:27:32.640Z,10.75
2023-05-21T10:30:01.108Z,11.57
2023-05-21T10:32:29.150Z,11.50
2023-05-21T10:34:59.383Z,10.95
2023-05-21T10:37:29.882Z,13.45
2023-05-21T10:39:58.571Z,12.45
2023-05-21T10:42:35.634Z,9.63
2023-05-21T10:45:23.665Z,8.63
2023-05-21T10:48:09.938Z,12.23
2023-05-21T10:50:41.891Z,8.98
2023-05-21T10:53:29.697Z,11.98
2023-05-21T10:56:07.049Z,9.50
2023-05-21T10:58:53.037Z,12.30
2023-05-21T11:01:21.374Z,11.60
2023-05-21T11:03:49.254Z,10.30
2023-05-21T11:06:27.281Z,10.45
2023-05-21T11:08:55.748Z,18.38
2023-05-21T11:11:46.236Z,9.80
2023-05-21T11:14:35.278Z,8.57
2023-05-21T11:17:04.748Z,9.77
2023-05-21T11:19:42.752Z,10.18
2023-05-21T11:22:22.132Z,9.13
2023-05-21T11:24:51.337Z,11.82
2023-05-21T11:27:39.457Z,8.60
2023-05-21T11:30:11.261Z,10.55
2023-05-21T11:32:46.278Z,9.98
2023-05-21T11:35:15.262Z,11.77
2023-05-21T11:37:46.194Z,9.43
2023-05-21T11:40:21.632Z,9.43
2023-05-21T11:42:53.777Z,10.32
2023-05-21T11:45:24.580Z,8.93
2023-05-21T11:47:53.973Z,10.10
2023-05-21T11:50:22.028Z,11.15
2023-05-21T11:52:50.129Z,7.47
2023-05-21T11:55:24.744Z,8.23
2023-05-21T11:57:53.992Z,8.85
2023-05-21T12:00:21.839Z,7.90
2023-05-21T12:02:51.981Z,6.82
2023-05-21T12:05:19.811Z,7.97
2023-05-21T12:07:51.451Z,9.98
2023-05-21T12:10:23.107Z,6.90
2023-05-21T12:12:56.397Z,7.82
2023-05-21T12:15:25.583Z,8.93
2023-05-21T12:17:53.351Z,16.25
2023-05-21T12:20:21.292Z,10.45
2023-05-21T12:22:52.232Z,11.23
2023-05-21T12:25:20.708Z,9.32
2023-05-21T12:27:52.677Z,6.32
2023-05-21T12:30:21.527Z,8.85
2023-05-21T12:32:49.922Z,8.82
2023-05-21T12:35:24.630Z,7.30
2023-05-21T12:37:54.829Z,7.75
2023-05-21T12:40:22.714Z,11.25
2023-05-21T12:42:52.050Z,8.63
2023-05-21T12:45:21.228Z,8.88
2023-05-21T12:47:50.825Z,6.72
2023-05-21T12:50:24.689Z,9.77
2023-05-21T12:52:55.030Z,9.95
2023-05-21T12:55:26.461Z,9.65
2023-05-21T12:58:09.168Z,10.95
2023-05-21T13:00:37.785Z,5.22
2023-05-21T13:03:06.748Z,8.60
2023-05-21T13:05:34.991Z,6.85
2023-05-21T13:08:05.494Z,7.85
2023-05-21T13:10:35.369Z,6.88
2023-05-21T13:13:03.011Z,8.50
2023-05-21T13:15:30.703Z,9.82
2023-05-21T13:17:58.917Z,8.43
2023-05-21T13:20:27.856Z,7.53
2023-05-21T13:22:55.505Z,10.07
2023-05-21T13:25:29.123Z,5.28
2023-05-21T13:27:58.347Z,6.22
2023-05-21T13:30:26.041Z,7.93
2023-05-21T13:32:54.175Z,10.23
2023-05-21T13:35:21.822Z,7.20
2023-05-21T13:37:50.210Z,6.25
2023-05-21T13:40:17.747Z,10.30
2023-05-21T13:42:46.319Z,7.43
2023-05-21T13:45:14.947Z,9.18
2023-05-21T13:47:43.251Z,8.30
2023-05-21T13:50:11.184Z,8.75
2023-05-21T13:52:39.421Z,6.78
2023-05-21T13:55:07.237Z,7.32
2023-05-21T13:57:34.780Z,8.57
2023-05-21T14:00:02.572Z,10.02
2023-05-21T14:02:35.471Z,6.20
2023-05-21T14:05:03.172Z,7.03
2023-05-21T14:07:31.037Z,9.00
2023-05-21T14:09:58.536Z,10.00
2023-05-21T14:12:26.979Z,13.02
2023-05-21T14:14:54.522Z,9.75
2023-05-21T14:17:22.072Z,8.02
2023-05-21T14:19:49.863Z,10.13
2023-05-21T14:22:17.302Z,14.38
2023-05-21T14:24:44.803Z,8.73
2023-05-21T14:27:14.550Z,7.40
2023-05-21T14:29:42.980Z,7.53
2023-05-21T14:32:10.795Z,7.13
2023-05-21T14:34:39.304Z,7.75
2023-05-21T14:37:07.189Z,6.00
2023-05-21T14:39:34.699Z,8.00
2023-05-21T14:42:04.897Z,11.15
2023-05-21T14:44:32.747Z,8.05
2023-05-21T14:47:00.486Z,9.45
2023-05-21T14:49:28.293Z,6.90
2023-05-21T14:51:56.004Z,7.85
2023-05-21T14:54:24.542Z,5.57
2023-05-21T14:56:52.903Z,12.50
2023-05-21T14:59:20.669Z,10.23
2023-05-21T15:01:48.510Z,7.10
2023-05-21T15:04:16.448Z,6.82
2023-05-21T15:06:44.171Z,6.95
2023-05-21T15:09:11.883Z,9.80
2023-05-21T15:11:40.258Z,6.10
2023-05-21T15:14:07.788Z,6.93
2023-05-21T15:16:35.765Z,10.02
2023-05-21T15:19:04.294Z,10.35
2023-05-21T15:21:32.211Z,8.73
2023-05-21T15:23:59.926Z,7.25
2023-05-21T15:26:27.709Z,7.30
2023-05-21T15:28:55.379Z,6.22
2023-05-21T15:31:23.007Z,5.90
2023-05-21T15:33:50.527Z,6.45
2023-05-21T15:36:18.170Z,6.97
2023-05-21T15:38:45.688Z,6.57
2023-05-21T15:41:15.309Z,7.22
2023-05-21T15:43:42.985Z,8.27
2023-05-21T15:46:13.518Z,6.93
2023-05-21T15:48:41.283Z,8.85
2023-05-21T15:51:08.894Z,11.80
2023-05-21T15:53:36.340Z,9.63
2023-05-21T15:56:04.541Z,10.93
2023-05-21T15:58:32.209Z,6.05
2023-05-21T16:00:59.783Z,8.73
2023-05-21T16:03:27.541Z,6.78
2023-05-21T16:05:58.377Z,9.02
2023-05-21T16:08:25.935Z,9.10
2023-05-21T16:10:53.492Z,5.97
2023-05-21T16:13:21.339Z,9.98
2023-05-21T16:15:49.027Z,6.85
2023-05-21T16:18:16.751Z,11.48
2023-05-21T16:20:44.331Z,8.90
2023-05-21T16:23:12.896Z,8.30
2023-05-21T16:25:40.523Z,9.27
2023-05-21T16:28:08.017Z,7.63
2023-05-21T16:30:35.528Z,8.25
2023-05-21T16:33:03.231Z,11.77
2023-05-21T16:35:33.647Z,10.27
2023-05-21T16:38:01.311Z,6.35
2023-05-21T16:40:29.121Z,8.15
2023-05-21T16:42:56.839Z,8.95
2023-05-21T16:45:24.904Z,6.82
2023-05-21T16:47:52.829Z,8.73
2023-05-21T16:50:21.029Z,7.30
2023-05-21T16:52:48.981Z,9.38
2023-05-21T16:55:16.576Z,8.25
2023-05-21T16:57:44.104Z,9.07
2023-05-21T17:00:13.127Z,11.57
2023-05-21T17:02:40.820Z,9.60
2023-05-21T17:05:08.552Z,9.23
2023-05-21T17:07:36.012Z,9.48
2023-05-21T17:10:04.029Z,7.63
2023-05-21T17:12:31.593Z,9.25
2023-05-21T17:14:59.225Z,9.75
2023-05-21T17:17:27.048Z,6.90
2023-05-21T17:19:58.714Z,9.85
2023-05-21T17:22:26.384Z,7.93
2023-05-21T17:24:54.173Z,8.80
2023-05-21T17:27:21.807Z,5.88
2023-05-21T17:29:49.314Z,9.75
2023-05-21T17:32:17.169Z,7.82
2023-05-21T17:34:44.790Z,6.40
2023-05-21T17:37:12.352Z,7.20
2023-05-21T17:39:40.019Z,6.50
2023-05-21T17:42:07.578Z,10.32
2023-05-21T17:44:35.087Z,6.43
2023-05-21T17:47:02.762Z,6.53
2023-05-21T17:49:30.681Z,7.63
2023-05-21T17:51:59.613Z,7.93
2023-05-21T17:54:27.173Z,9.20
2023-05-21T17:56:54.618Z,7.97
2023-05-21T17:59:22.243Z,7.57
2023-05-21T18:01:49.836Z,10.88
2023-05-21T18:04:17.661Z,9.48
2023-05-21T18:06:45.435Z,6.97
2023-05-21T18:09:15.626Z,7.65
2023-05-21T18:11:44.682Z,7.32
2023-05-21T18:14:12.314Z,8.15
2023-05-21T18:16:41.082Z,8.25
2023-05-21T18:19:08.693Z,8.15
2023-05-21T18:21:36.376Z,8.55
2023-05-21T18:24:04.206Z,6.20
2023-05-21T18:26:31.947Z,6.45
2023-05-21T18:28:59.678Z,5.20
2023-05-21T18:31:27.543Z,6.05
2023-05-21T18:33:55.141Z,5.70
2023-05-21T18:36:22.752Z,9.65
2023-05-21T18:38:50.228Z,6.80
2023-05-21T18:41:18.272Z,8.73
2023-05-21T18:43:46.166Z,13.00
2023-05-21T18:46:13.784Z,10.48
2023-05-21T18:48:41.754Z,7.85
2023-05-21T18:51:09.999Z,6.80
2023-05-21T18:53:38.707Z,8.98
2023-05-21T18:56:07.690Z,8.82
2023-05-21T18:58:36.027Z,7.60
2023-05-21T19:01:03.618Z,6.90
2023-05-21T19:03:32.281Z,8.68
2023-05-21T19:06:00.203Z,8.98
2023-05-21T19:08:27.742Z,7.85
2023-05-21T19:10:55.562Z,7.32
2023-05-21T19:13:23.849Z,10.27
2023-05-21T19:15:51.413Z,10.48
2023-05-21T19:18:19.208Z,7.10
2023-05-21T19:20:46.932Z,7.15
2023-05-21T19:23:14.571Z,9.23
2023-05-21T19:25:42.228Z,10.15
2023-05-21T19:28:09.912Z,9.45
2023-05-21T19:30:37.655Z,7.15
2023-05-21T19:33:06.473Z,7.05
2023-05-21T19:35:35.078Z,7.70
2023-05-21T19:38:05.058Z,9.40
2023-05-21T19:40:33.067Z,7.15
2023-05-21T19:43:00.603Z,9.07
2023-05-21T19:45:28.113Z,7.10
2023-05-21T19:48:00.018Z,8.45
2023-05-21T19:50:28.938Z,13.13
2023-05-21T19:52:57.428Z,10.23
2023-05-21T19:55:25.159Z,8.15
2023-05-21T19:57:52.827Z,10.13
2023-05-21T20:00:20.626Z,7.18
2023-05-21T20:02:48.284Z,6.50
2023-05-21T20:05:16.342Z,10.23
2023-05-21T20:07:44.994Z,8.38
2023-05-21T20:10:12.507Z,7.93
2023-05-21T20:12:40.106Z,8.50
2023-05-21T20:15:08.292Z,7.20
2023-05-21T20:17:36.205Z,9.73
2023-05-21T20:20:07.706Z,6.35
2023-05-21T20:22:35.173Z,8.05
2023-05-21T20:25:04.200Z,7.07
2023-05-21T20:27:32.133Z,8.63
2023-05-21T20:29:59.842Z,11.85
2023-05-21T20:32:27.429Z,9.07
2023-05-21T20:35:02.862Z,10.05
2023-05-21T20:37:34.716Z,9.50
2023-05-21T20:40:02.372Z,9.35
2023-05-21T20:42:34.799Z,9.43
2023-05-21T20:45:03.310Z,11.57
2023-05-21T20:47:31.021Z,7.53
2023-05-21T20:50:00.197Z,9.43
2023-05-21T20:52:28.689Z,8.10
2023-05-21T20:54:59.577Z,8.23
2023-05-21T20:57:28.545Z,6.95
2023-05-21T20:59:56.292Z,10.32
2023-05-21T21:02:24.164Z,9.73
2023-05-21T21:04:51.799Z,9.52
2023-05-21T21:07:19.839Z,8.57
2023-05-21T21:09:47.842Z,10.98
2023-05-21T21:12:26.146Z,11.10
2023-05-21T21:14:54.668Z,8.65
2023-05-21T21:17:22.277Z,9.50
2023-05-21T21:19:50.045Z,11.32
2023-05-21T21:22:18.477Z,8.65
2023-05-21T21:24:47.368Z,8.82
2023-05-21T21:27:14.866Z,13.57
2023-05-21T21:29:42.460Z,13.27
2023-05-21T21:32:10.225Z,13.27
2023-05-21T21:34:37.730Z,9.00
2023-05-21T21:37:05.419Z,11.25
2023-05-21T21:39:33.252Z,7.32
2023-05-21T21:42:00.978Z,12.80
2023-05-21T21:44:28.694Z,9.38
2023-05-21T21:46:56.386Z,11.23
2023-05-21T21:49:24.066Z,8.13
2023-05-21T21:51:51.779Z,8.25
2023-05-21T21:54:19.548Z,9.98
2023-05-21T21:56:47.266Z,10.73
2023-05-21T21:59:15.148Z,7.35
2023-05-21T22:01:43.394Z,6.60
2023-05-21T22:04:11.499Z,8.18
2023-05-21T22:06:41.955Z,10.02
2023-05-21T22:09:09.702Z,8.48
2023-05-21T22:11:37.342Z,9.65
2023-05-21T22:14:06.067Z,7.20
2023-05-21T22:16:34.292Z,6.32
2023-05-21T22:19:02.483Z,9.52
2023-05-21T22:21:33.106Z,7.82
2023-05-21T22:24:00.807Z,9.55
2023-05-21T22:26:30.382Z,6.90
2023-05-21T22:28:59.422Z,10.52
2023-05-21T22:31:27.283Z,8.02
2023-05-21T22:33:54.823Z,9.13
2023-05-21T22:36:22.696Z,11.30
2023-05-21T22:38:50.258Z,10.70
2023-05-21T22:41:18.140Z,9.05
2023-05-21T22:43:46.241Z,13.75
2023-05-21T22:46:13.838Z,10.15
2023-05-21T22:48:41.986Z,8.77
2023-05-21T22:51:11.687Z,7.47
2023-05-21T22:53:39.247Z,13.50
2023-05-21T22:56:07.110Z,10.15
2023-05-21T22:58:34.751Z,9.18
2023-05-21T23:01:02.171Z,9.52
2023-05-21T23:03:29.872Z,10.10
2023-05-21T23:05:57.337Z,7.97
2023-05-21T23:08:24.892Z,7.72
2023-05-21T23:10:52.512Z,9.13
2023-05-21T23:13:20.056Z,9.80
2023-05-21T23:15:48.640Z,9.90
2023-05-21T23:18:16.834Z,9.88
2023-05-21T23:20:44.576Z,10.77
2023-05-21T23:23:12.297Z,8.50
2023-05-21T23:25:40.228Z,9.23
2023-05-21T23:28:07.738Z,11.15
2023-05-21T23:30:35.655Z,9.30
2023-05-21T23:33:03.565Z,8.45
2023-05-21T23:35:31.229Z,8.98
2023-05-21T23:37:58.789Z,8.18
2023-05-21T23:40:26.827Z,10.27
2023-05-21T23:42:54.440Z,8.35
2023-05-21T23:45:22.269Z,11.20
2023-05-21T23:47:50.169Z,9.50
2023-05-21T23:50:17.977Z,10.07
2023-05-21T23:52:48.866Z,10.10
2023-05-21T23:55:16.894Z,9.85
2023-05-21T23:57:44.709Z,8.57
